Hampden, Canada
Current Conditions -  °F | °C
As of 8:00 PM on Wednesday 22 Oct 2014 (Local Time) from CYDF Reporting Station
Scattered Clouds Scattered Clouds  
Wind Chill: 41°   Ceiling: Unl
Heat Index: 41°   Visibility: 15mi
Dew Point: 39°   Wind: 2mph
Humidity: 93%   Direction: 320°NW
Pressure: 30.46"   Gusts: NA
Location:  49.53°N, 56.87°W
Report Text: CYDF 222200Z 32002KT 15SM SCT040 05/04 A3046 RMK SC3 SLP315
Loading
Personal Weather Stations






























Interactive Weather Map
Tropical Storm Tracking
New forecast layout! Learn more

10-Day Weather Forecast

Advertisements
Track Severe Weather on mobile